createdAt,value
2023-03-17T00:01:42.324Z,3.23
2023-03-17T00:04:11.963Z,3.40
2023-03-17T00:06:41.180Z,3.50
2023-03-17T00:09:14.704Z,3.80
2023-03-17T00:11:42.487Z,3.50
2023-03-17T00:14:10.123Z,3.30
2023-03-17T00:16:39.883Z,3.57
2023-03-17T00:19:07.421Z,3.30
2023-03-17T00:21:36.553Z,3.47
2023-03-17T00:24:04.049Z,3.67
2023-03-17T00:26:33.373Z,3.27
2023-03-17T00:29:00.832Z,3.50
2023-03-17T00:31:30.406Z,3.17
2023-03-17T00:33:58.516Z,3.23
2023-03-17T00:36:29.323Z,3.47
2023-03-17T00:38:57.386Z,3.00
2023-03-17T00:41:26.101Z,3.40
2023-03-17T00:43:55.325Z,3.23
2023-03-17T00:46:27.491Z,3.43
2023-03-17T00:48:55.448Z,3.30
2023-03-17T00:51:23.537Z,3.17
2023-03-17T00:53:51.656Z,3.30
2023-03-17T00:56:21.210Z,3.33
2023-03-17T00:58:49.933Z,3.10
2023-03-17T01:01:19.860Z,3.20
2023-03-17T01:03:47.385Z,3.50
2023-03-17T01:06:16.182Z,3.27
2023-03-17T01:08:44.664Z,3.10
2023-03-17T01:11:16.062Z,3.20
2023-03-17T01:13:43.517Z,3.40
2023-03-17T01:16:12.296Z,3.10
2023-03-17T01:18:41.476Z,3.20
2023-03-17T01:21:09.576Z,3.00
2023-03-17T01:23:37.265Z,3.00
2023-03-17T01:26:04.976Z,3.30
2023-03-17T01:28:32.562Z,3.27
2023-03-17T01:31:00.477Z,3.00
2023-03-17T01:33:28.001Z,3.23
2023-03-17T01:35:56.837Z,2.90
2023-03-17T01:38:24.553Z,3.10
2023-03-17T01:40:53.549Z,3.00
2023-03-17T01:43:23.389Z,2.73
2023-03-17T01:46:21.708Z,3.13
2023-03-17T01:48:55.689Z,3.00
2023-03-17T01:51:31.200Z,2.97
2023-03-17T01:54:00.977Z,2.83
2023-03-17T01:56:30.127Z,3.10
2023-03-17T01:59:00.763Z,3.33
2023-03-17T02:01:33.922Z,2.70
2023-03-17T02:04:02.601Z,3.10
2023-03-17T02:06:31.939Z,3.00
2023-03-17T02:09:00.345Z,3.10
2023-03-17T02:11:29.129Z,3.00
2023-03-17T02:13:56.617Z,3.07
2023-03-17T02:16:24.924Z,2.93
2023-03-17T02:18:52.622Z,2.97
2023-03-17T02:21:35.173Z,2.90
2023-03-17T02:24:05.181Z,2.73
2023-03-17T02:26:35.339Z,2.60
2023-03-17T02:29:03.540Z,2.80
2023-03-17T02:31:31.142Z,2.70
2023-03-17T02:33:58.643Z,2.67
2023-03-17T02:36:26.210Z,2.80
2023-03-17T02:38:55.011Z,2.73
2023-03-17T02:41:23.321Z,2.80
2023-03-17T02:43:52.133Z,2.83
2023-03-17T02:46:19.560Z,2.70
2023-03-17T02:48:47.328Z,2.73
2023-03-17T02:51:14.898Z,2.90
2023-03-17T02:53:42.546Z,3.00
2023-03-17T02:56:11.394Z,3.10
2023-03-17T02:58:39.074Z,3.03
2023-03-17T03:01:06.538Z,2.40
2023-03-17T03:03:34.011Z,2.63
2023-03-17T03:06:03.143Z,2.70
2023-03-17T03:08:31.541Z,2.13
2023-03-17T03:11:00.284Z,2.50
2023-03-17T03:13:29.087Z,2.27
2023-03-17T03:15:56.555Z,2.50
2023-03-17T03:18:24.417Z,2.50
2023-03-17T03:20:51.848Z,2.40
2023-03-17T03:23:19.281Z,2.60
2023-03-17T03:25:47.247Z,2.63
2023-03-17T03:28:15.000Z,2.50
2023-03-17T03:30:44.570Z,2.67
2023-03-17T03:33:14.187Z,2.67
2023-03-17T03:35:42.811Z,2.70
2023-03-17T03:38:10.319Z,2.70
2023-03-17T03:40:38.227Z,2.33
2023-03-17T03:43:19.867Z,2.50
2023-03-17T03:45:50.703Z,2.73
2023-03-17T03:48:18.742Z,2.90
2023-03-17T03:50:46.276Z,2.40
2023-03-17T03:53:14.472Z,2.77
2023-03-17T03:55:41.953Z,2.60
2023-03-17T03:58:09.423Z,2.57
2023-03-17T04:00:37.181Z,2.50
2023-03-17T04:03:06.158Z,2.60
2023-03-17T04:05:33.709Z,2.33
2023-03-17T04:08:01.211Z,2.47
2023-03-17T04:10:29.055Z,2.60
2023-03-17T04:12:56.765Z,2.70
2023-03-17T04:15:25.022Z,2.73
2023-03-17T04:17:54.990Z,2.80
2023-03-17T04:20:23.870Z,2.70
2023-03-17T04:22:51.361Z,2.60
2023-03-17T04:25:19.148Z,2.80
2023-03-17T04:27:46.624Z,3.03
2023-03-17T04:30:16.602Z,2.57
2023-03-17T04:32:44.983Z,2.50
2023-03-17T04:35:14.417Z,3.00
2023-03-17T04:37:43.262Z,2.50
2023-03-17T04:40:12.563Z,2.60
2023-03-17T04:42:40.509Z,2.80
2023-03-17T04:45:11.098Z,2.50
2023-03-17T04:47:39.376Z,2.80
2023-03-17T04:50:08.811Z,2.80
2023-03-17T04:52:37.091Z,2.80
2023-03-17T04:55:08.153Z,2.50
2023-03-17T04:57:35.908Z,2.90
2023-03-17T05:00:03.494Z,2.90
2023-03-17T05:02:30.964Z,2.83
2023-03-17T05:04:58.515Z,3.17
2023-03-17T05:07:26.244Z,2.87
2023-03-17T05:09:53.686Z,3.03
2023-03-17T05:12:22.648Z,2.90
2023-03-17T05:14:50.048Z,2.80
2023-03-17T05:17:17.578Z,2.57
2023-03-17T05:19:45.041Z,2.73
2023-03-17T05:22:12.569Z,2.70
2023-03-17T05:24:40.148Z,2.70
2023-03-17T05:27:07.614Z,3.00
2023-03-17T05:29:36.441Z,3.00
2023-03-17T05:32:04.229Z,3.40
2023-03-17T05:34:32.077Z,2.80
2023-03-17T05:36:59.504Z,2.83
2023-03-17T05:39:27.865Z,2.93
2023-03-17T05:41:55.355Z,3.10
2023-03-17T05:44:22.784Z,3.00
2023-03-17T05:46:51.551Z,2.97
2023-03-17T05:49:20.321Z,2.97
2023-03-17T05:51:47.845Z,3.10
2023-03-17T05:54:15.692Z,3.20
2023-03-17T05:56:43.322Z,3.13
2023-03-17T05:59:14.803Z,3.10
2023-03-17T06:01:42.382Z,3.20
2023-03-17T06:04:11.495Z,3.00
2023-03-17T06:06:38.988Z,3.07
2023-03-17T06:09:06.506Z,3.57
2023-03-17T06:11:33.973Z,3.40
2023-03-17T06:14:01.955Z,3.27
2023-03-17T06:16:32.588Z,3.40
2023-03-17T06:19:00.265Z,2.90
2023-03-17T06:21:29.332Z,3.10
2023-03-17T06:23:56.737Z,3.27
2023-03-17T06:26:24.166Z,3.23
2023-03-17T06:28:51.681Z,3.20
2023-03-17T06:31:19.231Z,3.17
2023-03-17T06:33:46.954Z,3.53
2023-03-17T06:36:14.647Z,3.20
2023-03-17T06:38:43.562Z,3.10
2023-03-17T06:41:11.100Z,3.20
2023-03-17T06:43:38.557Z,3.20
2023-03-17T06:46:07.340Z,3.27
2023-03-17T06:48:35.307Z,3.17
2023-03-17T06:51:02.890Z,3.10
2023-03-17T06:53:30.661Z,2.90
2023-03-17T06:55:59.592Z,3.27
2023-03-17T06:58:27.085Z,3.13
2023-03-17T07:00:54.522Z,3.10
2023-03-17T07:03:22.454Z,3.00
2023-03-17T07:05:50.086Z,2.93
2023-03-17T07:08:17.772Z,2.90
2023-03-17T07:10:45.757Z,3.00
2023-03-17T07:13:14.601Z,3.10
2023-03-17T07:15:42.861Z,3.40
2023-03-17T07:18:11.040Z,3.50
2023-03-17T07:20:38.549Z,3.00
2023-03-17T07:23:05.956Z,3.40
2023-03-17T07:25:33.698Z,3.00
2023-03-17T07:28:01.315Z,3.20
2023-03-17T07:30:30.137Z,3.17
2023-03-17T07:32:58.444Z,2.93
2023-03-17T07:35:25.977Z,3.00
2023-03-17T07:37:53.746Z,2.93
2023-03-17T07:40:21.168Z,3.10
2023-03-17T07:42:48.591Z,3.17
2023-03-17T07:45:16.364Z,3.20
2023-03-17T07:47:46.359Z,2.70
2023-03-17T07:50:14.114Z,2.80
2023-03-17T07:52:42.107Z,2.93
2023-03-17T07:55:12.354Z,3.00
2023-03-17T07:57:41.293Z,3.00
2023-03-17T08:00:10.603Z,2.90
2023-03-17T08:02:38.432Z,3.10
2023-03-17T08:05:11.268Z,3.03
2023-03-17T08:07:39.021Z,3.07
2023-03-17T08:10:08.343Z,3.47
2023-03-17T08:12:36.706Z,3.30
2023-03-17T08:15:04.530Z,3.37
2023-03-17T08:17:32.016Z,3.27
2023-03-17T08:19:59.684Z,3.20
2023-03-17T08:22:28.979Z,3.10
2023-03-17T08:24:56.549Z,3.07
2023-03-17T08:27:24.015Z,3.30
2023-03-17T08:29:51.846Z,3.13
2023-03-17T08:32:19.417Z,3.37
2023-03-17T08:34:48.298Z,3.50
2023-03-17T08:37:15.742Z,3.43
2023-03-17T08:39:44.826Z,3.37
2023-03-17T08:42:12.288Z,3.50
2023-03-17T08:44:41.268Z,3.63
2023-03-17T08:47:10.063Z,3.83
2023-03-17T08:49:38.492Z,3.47
2023-03-17T08:52:06.022Z,3.50
2023-03-17T08:54:35.980Z,3.63
2023-03-17T08:57:04.962Z,3.73
2023-03-17T08:59:32.789Z,3.57
2023-03-17T09:02:00.479Z,3.57
2023-03-17T09:04:28.161Z,3.30
2023-03-17T09:07:03.448Z,3.40
2023-03-17T09:09:32.098Z,3.67
2023-03-17T09:11:59.785Z,3.47
2023-03-17T09:14:31.725Z,3.50
2023-03-17T09:17:00.848Z,3.50
2023-03-17T09:19:28.314Z,3.40
2023-03-17T09:21:55.737Z,3.30
2023-03-17T09:24:23.197Z,3.13
2023-03-17T09:26:50.999Z,3.10
2023-03-17T09:29:18.433Z,3.20
2023-03-17T09:31:47.425Z,3.40
2023-03-17T09:34:14.838Z,3.20
2023-03-17T09:36:42.848Z,3.37
2023-03-17T09:39:10.435Z,3.07
2023-03-17T09:41:57.221Z,3.47
2023-03-17T09:44:41.091Z,2.90
2023-03-17T09:47:23.209Z,2.97
2023-03-17T09:49:53.185Z,3.30
2023-03-17T09:52:28.183Z,3.43
2023-03-17T09:54:56.910Z,3.40
2023-03-17T09:57:30.535Z,3.37
2023-03-17T10:00:06.441Z,3.40
2023-03-17T10:02:38.061Z,2.93
2023-03-17T10:05:14.831Z,3.07
2023-03-17T10:07:47.757Z,2.93
2023-03-17T10:10:21.525Z,3.20
2023-03-17T10:12:56.818Z,3.07
2023-03-17T10:15:32.387Z,3.43
2023-03-17T10:18:02.416Z,3.33
2023-03-17T10:20:34.049Z,3.43
2023-03-17T10:23:05.719Z,3.23
2023-03-17T10:25:35.807Z,3.10
2023-03-17T10:28:09.125Z,3.37
2023-03-17T10:30:36.648Z,3.40
2023-03-17T10:33:07.229Z,3.23
2023-03-17T10:35:36.410Z,3.20
2023-03-17T10:38:16.240Z,3.20
2023-03-17T10:40:47.691Z,3.00
2023-03-17T10:43:19.309Z,3.20
2023-03-17T10:45:59.946Z,3.10
2023-03-17T10:48:30.639Z,3.03
2023-03-17T10:50:59.586Z,2.97
2023-03-17T10:53:31.202Z,3.27
2023-03-17T10:56:07.993Z,3.07
2023-03-17T10:58:41.566Z,3.17
2023-03-17T11:01:18.014Z,3.07
2023-03-17T11:03:47.830Z,3.00
2023-03-17T11:06:18.970Z,2.90
2023-03-17T11:08:49.985Z,3.10
2023-03-17T11:11:25.938Z,2.80
2023-03-17T11:14:03.128Z,2.87
2023-03-17T11:16:35.555Z,2.90
2023-03-17T11:19:09.129Z,2.67
2023-03-17T11:21:47.626Z,2.80
2023-03-17T11:24:19.414Z,2.87
2023-03-17T11:26:57.281Z,2.57
2023-03-17T11:29:39.750Z,2.90
2023-03-17T11:32:22.122Z,2.67
2023-03-17T11:35:04.005Z,3.00
2023-03-17T11:37:53.275Z,2.73
2023-03-17T11:40:26.492Z,2.77
2023-03-17T11:43:08.553Z,3.07
2023-03-17T11:45:43.023Z,2.53
2023-03-17T11:48:25.043Z,2.87
2023-03-17T11:50:59.518Z,2.90
2023-03-17T11:53:52.577Z,2.97
2023-03-17T11:56:22.245Z,2.70
2023-03-17T11:58:54.956Z,2.70
2023-03-17T12:01:27.140Z,2.70
2023-03-17T12:04:07.199Z,2.93
2023-03-17T12:06:40.692Z,2.53
2023-03-17T12:09:20.124Z,2.60
2023-03-17T12:11:48.718Z,2.70
2023-03-17T12:14:27.912Z,2.63
2023-03-17T12:17:04.769Z,2.43
2023-03-17T12:19:42.325Z,2.57
2023-03-17T12:22:19.764Z,2.80
2023-03-17T12:24:55.314Z,2.33
2023-03-17T12:27:27.393Z,2.50
2023-03-17T12:30:00.120Z,2.53
2023-03-17T12:32:37.089Z,2.50
2023-03-17T12:35:22.803Z,2.80
2023-03-17T12:37:51.688Z,2.50
2023-03-17T12:40:25.186Z,2.50
2023-03-17T12:43:01.934Z,2.80
2023-03-17T12:45:54.371Z,2.53
2023-03-17T12:48:50.209Z,2.43
2023-03-17T12:51:39.838Z,2.40
2023-03-17T12:54:16.276Z,2.50
2023-03-17T12:56:47.826Z,2.30
2023-03-17T12:59:19.982Z,2.43
2023-03-17T13:01:58.076Z,2.53
2023-03-17T13:04:28.210Z,2.33
2023-03-17T13:07:03.101Z,2.30
2023-03-17T13:09:43.096Z,2.83
2023-03-17T13:12:44.205Z,2.50
2023-03-17T13:15:24.108Z,2.20
2023-03-17T13:17:52.654Z,2.60
2023-03-17T13:20:21.257Z,2.70
2023-03-17T13:23:04.735Z,2.40
2023-03-17T13:25:35.785Z,2.43
2023-03-17T13:28:23.193Z,2.70
2023-03-17T13:31:08.642Z,2.40
2023-03-17T13:33:41.652Z,2.80
2023-03-17T13:36:31.818Z,2.63
2023-03-17T13:39:25.188Z,2.40
2023-03-17T13:42:23.892Z,2.53
2023-03-17T13:45:09.939Z,2.53
2023-03-17T13:47:42.038Z,2.50
2023-03-17T13:50:14.446Z,2.80
2023-03-17T13:52:44.117Z,2.40
2023-03-17T13:55:35.029Z,2.40
2023-03-17T13:58:33.065Z,2.70
2023-03-17T14:01:06.587Z,2.60
2023-03-17T14:03:47.368Z,2.27
2023-03-17T14:06:15.713Z,2.50
2023-03-17T14:08:49.860Z,2.37
2023-03-17T14:11:23.811Z,2.40
2023-03-17T14:14:05.866Z,2.30
2023-03-17T14:16:37.308Z,2.40
2023-03-17T14:19:12.782Z,2.47
2023-03-17T14:21:40.674Z,2.70
2023-03-17T14:24:20.460Z,2.60
2023-03-17T14:26:48.786Z,2.40
2023-03-17T14:29:19.969Z,2.73
2023-03-17T14:31:48.793Z,2.13
2023-03-17T14:34:17.590Z,2.67
2023-03-17T14:36:45.324Z,2.80
2023-03-17T14:39:24.189Z,2.90
2023-03-17T14:42:00.111Z,2.40
2023-03-17T14:44:29.177Z,2.20
2023-03-17T14:47:05.297Z,2.45
2023-03-17T14:49:33.416Z,2.00
2023-03-17T14:52:02.511Z,2.22
2023-03-17T14:54:33.686Z,2.28
2023-03-17T14:57:04.937Z,2.50
2023-03-17T14:59:35.937Z,2.20
2023-03-17T15:02:16.856Z,2.30
2023-03-17T15:04:52.838Z,2.17
2023-03-17T15:07:32.373Z,2.40
2023-03-17T15:10:02.028Z,2.20
2023-03-17T15:12:30.068Z,2.40
2023-03-17T15:15:01.343Z,2.13
2023-03-17T15:17:32.552Z,2.27
2023-03-17T15:20:05.360Z,2.23
2023-03-17T15:22:41.978Z,2.20
2023-03-17T15:25:19.613Z,2.30
2023-03-17T15:27:48.294Z,1.93
2023-03-17T15:30:18.391Z,2.20
2023-03-17T15:32:52.830Z,2.17
2023-03-17T15:35:20.861Z,1.97
2023-03-17T15:37:48.705Z,2.47
2023-03-17T15:40:16.574Z,2.20
2023-03-17T15:42:45.310Z,2.13
2023-03-17T15:45:15.840Z,2.20
2023-03-17T15:47:46.886Z,2.40
2023-03-17T15:50:17.828Z,2.57
2023-03-17T15:52:45.980Z,2.20
2023-03-17T15:55:20.686Z,2.20
2023-03-17T15:57:54.720Z,2.27
2023-03-17T16:00:25.413Z,2.00
2023-03-17T16:02:56.154Z,2.27
2023-03-17T16:05:26.440Z,2.20
2023-03-17T16:07:54.811Z,2.30
2023-03-17T16:10:25.078Z,2.60
2023-03-17T16:12:52.913Z,2.33
2023-03-17T16:15:23.604Z,2.50
2023-03-17T16:17:55.111Z,2.30
2023-03-17T16:20:25.970Z,2.27
2023-03-17T16:22:54.767Z,2.33
2023-03-17T16:25:25.801Z,2.30
2023-03-17T16:27:55.314Z,2.20
2023-03-17T16:30:24.530Z,2.10
2023-03-17T16:32:54.721Z,1.93
2023-03-17T16:35:24.024Z,1.90
2023-03-17T16:37:54.280Z,1.80
2023-03-17T16:40:24.741Z,1.70
2023-03-17T16:42:52.383Z,1.70
2023-03-17T16:45:28.339Z,1.77
2023-03-17T16:47:57.981Z,2.00
2023-03-17T16:50:27.575Z,1.70
2023-03-17T16:52:55.807Z,1.77
2023-03-17T16:55:25.228Z,1.63
2023-03-17T16:57:55.977Z,1.60
2023-03-17T17:00:26.495Z,1.70
2023-03-17T17:02:54.758Z,1.50
2023-03-17T17:05:26.303Z,1.60
2023-03-17T17:07:56.209Z,1.57
2023-03-17T17:10:25.284Z,1.40
2023-03-17T17:12:53.182Z,1.40
2023-03-17T17:15:22.211Z,1.37
2023-03-17T17:17:52.785Z,1.50
2023-03-17T17:20:24.571Z,1.40
2023-03-17T17:22:52.208Z,1.57
2023-03-17T17:25:19.687Z,1.50
2023-03-17T17:27:48.308Z,1.70
2023-03-17T17:30:18.536Z,1.50
2023-03-17T17:32:47.048Z,1.43
2023-03-17T17:35:16.428Z,1.50
2023-03-17T17:37:45.447Z,1.67
2023-03-17T17:40:15.885Z,1.60
2023-03-17T17:42:46.353Z,2.10
2023-03-17T17:45:15.548Z,2.20
2023-03-17T17:47:43.424Z,2.20
2023-03-17T17:50:17.543Z,2.23
2023-03-17T17:52:47.683Z,2.30
2023-03-17T17:55:15.835Z,2.30
2023-03-17T17:57:43.280Z,2.20
2023-03-17T18:00:14.497Z,2.03
2023-03-17T18:02:42.169Z,1.90
2023-03-17T18:05:10.888Z,2.30
2023-03-17T18:07:38.344Z,2.17
2023-03-17T18:10:09.936Z,2.30
2023-03-17T18:12:37.856Z,1.70
2023-03-17T18:15:06.970Z,1.97
2023-03-17T18:17:35.278Z,2.00
2023-03-17T18:20:02.756Z,2.20
2023-03-17T18:22:30.489Z,2.03
2023-03-17T18:24:57.892Z,1.90
2023-03-17T18:27:26.725Z,1.73
2023-03-17T18:29:56.161Z,2.10
2023-03-17T18:32:24.722Z,1.70
2023-03-17T18:34:52.306Z,1.67
2023-03-17T18:37:20.168Z,1.80
2023-03-17T18:39:58.547Z,1.60
2023-03-17T18:42:36.583Z,1.80
2023-03-17T18:45:06.678Z,1.70
2023-03-17T18:47:36.470Z,1.40
2023-03-17T18:50:03.997Z,1.60
2023-03-17T18:52:33.023Z,1.57
2023-03-17T18:55:00.549Z,1.80
2023-03-17T18:57:28.422Z,1.80
2023-03-17T18:59:57.236Z,1.57
2023-03-17T19:02:24.689Z,1.33
2023-03-17T19:04:52.208Z,1.50
2023-03-17T19:07:20.872Z,1.50
2023-03-17T19:09:48.325Z,1.63
2023-03-17T19:12:15.916Z,1.50
2023-03-17T19:14:43.787Z,1.73
2023-03-17T19:17:12.891Z,1.70
2023-03-17T19:19:41.293Z,1.60
2023-03-17T19:22:10.773Z,1.60
2023-03-17T19:24:38.433Z,1.60
2023-03-17T19:27:06.370Z,1.67
2023-03-17T19:29:34.027Z,1.60
2023-03-17T19:32:02.172Z,1.50
2023-03-17T19:34:31.138Z,1.67
2023-03-17T19:36:58.844Z,1.50
2023-03-17T19:39:26.478Z,1.57
2023-03-17T19:41:55.216Z,1.60
2023-03-17T19:44:23.314Z,1.90
2023-03-17T19:46:51.081Z,1.40
2023-03-17T19:49:19.730Z,1.63
2023-03-17T19:51:49.104Z,1.70
2023-03-17T19:54:18.524Z,1.60
2023-03-17T19:56:46.280Z,1.83
2023-03-17T19:59:14.961Z,1.77
2023-03-17T20:01:42.582Z,1.73
2023-03-17T20:04:13.816Z,1.73
2023-03-17T20:06:41.427Z,2.13
2023-03-17T20:09:10.249Z,1.90
2023-03-17T20:11:37.702Z,1.80
2023-03-17T20:14:06.037Z,1.97
2023-03-17T20:16:36.010Z,2.00
2023-03-17T20:19:04.512Z,2.00
2023-03-17T20:21:32.080Z,2.20
2023-03-17T20:23:59.654Z,2.00
2023-03-17T20:26:28.726Z,2.10
2023-03-17T20:28:56.816Z,2.00
2023-03-17T20:31:24.283Z,2.20
2023-03-17T20:33:51.789Z,1.93
2023-03-17T20:36:19.438Z,2.10
2023-03-17T20:38:46.905Z,1.87
2023-03-17T20:41:17.288Z,2.30
2023-03-17T20:43:47.498Z,1.80
2023-03-17T20:46:17.411Z,1.90
2023-03-17T20:48:47.646Z,2.00
2023-03-17T20:51:16.716Z,2.20
2023-03-17T20:53:45.078Z,2.20
2023-03-17T20:56:15.340Z,1.97
2023-03-17T20:58:43.137Z,2.53
2023-03-17T21:01:12.762Z,2.73
2023-03-17T21:03:40.395Z,2.40
2023-03-17T21:06:08.184Z,2.97
2023-03-17T21:08:36.533Z,2.90
2023-03-17T21:11:04.928Z,2.50
2023-03-17T21:13:32.973Z,2.80
2023-03-17T21:16:01.458Z,2.63
2023-03-17T21:18:30.552Z,2.70
2023-03-17T21:20:58.156Z,3.10
2023-03-17T21:23:26.556Z,3.10
2023-03-17T21:25:56.214Z,3.13
2023-03-17T21:28:23.896Z,3.03
2023-03-17T21:30:51.331Z,2.87
2023-03-17T21:33:18.815Z,3.00
2023-03-17T21:35:47.725Z,3.07
2023-03-17T21:38:15.204Z,3.10
2023-03-17T21:40:42.862Z,2.50
2023-03-17T21:43:10.689Z,2.30
2023-03-17T21:45:38.949Z,2.70
2023-03-17T21:48:06.589Z,2.77
2023-03-17T21:50:34.548Z,3.13
2023-03-17T21:53:03.645Z,2.70
2023-03-17T21:55:31.324Z,2.93
2023-03-17T21:57:59.025Z,2.63
2023-03-17T22:00:30.940Z,2.97
2023-03-17T22:03:04.138Z,3.37
2023-03-17T22:05:31.646Z,3.00
2023-03-17T22:07:59.607Z,3.43
2023-03-17T22:10:28.675Z,3.73
2023-03-17T22:12:56.419Z,3.70
2023-03-17T22:15:24.254Z,2.70
2023-03-17T22:17:53.092Z,2.80
2023-03-17T22:20:21.067Z,2.87
2023-03-17T22:22:48.480Z,2.90
2023-03-17T22:25:16.115Z,2.90
2023-03-17T22:27:45.039Z,2.73
2023-03-17T22:30:13.107Z,2.37
2023-03-17T22:32:40.942Z,3.23
2023-03-17T22:35:08.951Z,3.50
2023-03-17T22:37:36.453Z,3.10
2023-03-17T22:40:06.260Z,2.90
2023-03-17T22:42:34.157Z,2.80
2023-03-17T22:45:02.916Z,2.60
2023-03-17T22:47:30.535Z,3.40
2023-03-17T22:49:57.959Z,3.63
2023-03-17T22:52:25.432Z,3.60
2023-03-17T22:54:52.993Z,3.80
2023-03-17T22:57:20.630Z,3.90
2023-03-17T22:59:48.043Z,4.00
2023-03-17T23:02:18.546Z,3.77
2023-03-17T23:04:46.227Z,4.50
2023-03-17T23:07:13.997Z,4.43
2023-03-17T23:09:41.751Z,4.53
2023-03-17T23:12:10.550Z,4.50
2023-03-17T23:14:38.094Z,4.37
2023-03-17T23:17:06.093Z,4.13
2023-03-17T23:19:34.897Z,4.33
2023-03-17T23:22:02.872Z,4.33
2023-03-17T23:24:30.357Z,4.37
2023-03-17T23:26:57.771Z,3.90
2023-03-17T23:29:25.351Z,3.87
2023-03-17T23:31:52.815Z,3.80
2023-03-17T23:34:20.375Z,3.87
2023-03-17T23:36:49.180Z,3.70
2023-03-17T23:39:16.736Z,3.83
2023-03-17T23:41:44.969Z,4.03
2023-03-17T23:44:12.704Z,5.43
2023-03-17T23:46:40.155Z,5.43
2023-03-17T23:49:08.144Z,4.93
2023-03-17T23:51:36.091Z,4.87
2023-03-17T23:54:07.542Z,4.83
2023-03-17T23:56:35.419Z,4.30
2023-03-17T23:59:03.895Z,4.10
